Time;durP1;ratioP1;P1;durP2;ratioP2;P2;SDS_P1;SDS_P2;PMS_P1;PMS_P2;Temp;Humidity;BMP_temperature;BMP_pressure;BME280_temperature;BME280_humidity;BME280_pressure;Samples;Min_cycle;Max_cycle;Signal;HPM_P1;HPM_P2
2023/09/23 00:00:14;;;;;;;0.00;0.00;;;13.80;88.00;;;;;;4971120;28;20039;-69
2023/09/23 00:02:43;;;;;;;0.00;0.00;;;13.70;88.00;;;;;;4953935;28;20049;-69
2023/09/23 00:05:11;;;;;;;0.00;0.00;;;13.70;87.90;;;;;;4971334;28;20419;-69
2023/09/23 00:07:41;;;;;;;0.00;0.00;;;13.70;88.00;;;;;;4953334;28;20388;-70
2023/09/23 00:10:10;;;;;;;0.00;0.00;;;13.70;88.00;;;;;;4970043;28;20089;-69
2023/09/23 00:12:37;;;;;;;0.00;0.00;;;13.80;88.00;;;;;;4970153;28;20412;-69
2023/09/23 00:15:05;;;;;;;0.00;0.00;;;13.70;87.90;;;;;;4962860;28;20058;-69
2023/09/23 00:17:31;;;;;;;0.00;0.00;;;13.70;87.90;;;;;;4953972;28;20046;-69
2023/09/23 00:19:57;;;;;;;0.00;0.00;;;13.70;87.90;;;;;;4970315;28;20389;-69
2023/09/23 00:22:23;;;;;;;0.00;0.00;;;13.80;88.00;;;;;;4971419;28;20113;-69
2023/09/23 00:24:50;;;;;;;0.00;0.00;;;13.70;88.00;;;;;;4971045;28;20050;-70
2023/09/23 00:27:17;;;;;;;0.00;0.00;;;13.70;88.10;;;;;;4970693;28;20049;-70
2023/09/23 00:29:44;;;;;;;0.00;0.00;;;13.70;88.10;;;;;;4970243;28;20134;-70
2023/09/23 00:32:12;;;;;;;0.00;0.00;;;13.80;88.10;;;;;;4969653;28;20051;-69
2023/09/23 00:34:38;;;;;;;0.00;0.00;;;13.70;88.20;;;;;;4970641;28;20039;-69
2023/09/23 00:37:04;;;;;;;0.00;0.00;;;13.70;88.10;;;;;;4962405;28;20047;-69
2023/09/23 00:39:30;;;;;;;0.00;0.00;;;13.80;88.20;;;;;;4962483;28;20051;-69
2023/09/23 00:41:55;;;;;;;0.03;0.03;;;13.70;88.20;;;;;;4969966;28;20062;-69
2023/09/23 00:44:21;;;;;;;0.00;0.00;;;13.70;88.40;;;;;;4965114;28;20070;-69
2023/09/23 00:46:46;;;;;;;0.00;0.00;;;13.70;88.50;;;;;;4951353;28;20058;-69
2023/09/23 00:49:13;;;;;;;0.00;0.00;;;13.60;88.40;;;;;;4970415;28;20182;-69
2023/09/23 00:51:40;;;;;;;0.00;0.00;;;13.60;88.40;;;;;;4969802;28;20034;-69
2023/09/23 00:54:07;;;;;;;0.00;0.00;;;13.60;88.50;;;;;;4970771;28;20065;-69
2023/09/23 00:56:36;;;;;;;0.00;0.00;;;13.60;88.50;;;;;;4970371;28;20062;-69
2023/09/23 00:59:05;;;;;;;0.00;0.00;;;13.60;88.40;;;;;;4970596;28;20538;-69
2023/09/23 01:01:31;;;;;;;0.00;0.00;;;13.60;88.40;;;;;;4970260;28;20051;-68
2023/09/23 01:03:57;;;;;;;0.00;0.00;;;13.60;88.30;;;;;;4970197;28;20049;-69
2023/09/23 01:06:27;;;;;;;0.00;0.00;;;13.50;88.40;;;;;;4969792;28;20039;-69
2023/09/23 01:08:54;;;;;;;0.00;0.00;;;13.50;88.40;;;;;;4969780;28;20121;-69
2023/09/23 01:11:21;;;;;;;0.00;0.00;;;13.50;88.40;;;;;;4970382;28;20050;-69
2023/09/23 01:13:50;;;;;;;0.00;0.00;;;13.50;88.30;;;;;;4968479;28;20078;-69
2023/09/23 01:16:16;;;;;;;0.00;0.00;;;13.40;88.50;;;;;;4969969;28;20042;-69
2023/09/23 01:18:45;;;;;;;0.00;0.00;;;13.40;88.30;;;;;;4968853;28;20058;-69
2023/09/23 01:21:12;;;;;;;0.00;0.00;;;13.30;88.30;;;;;;4963828;28;20051;-69
2023/09/23 01:23:38;;;;;;;0.00;0.00;;;13.30;88.50;;;;;;4966792;28;20050;-69
2023/09/23 01:26:04;;;;;;;0.00;0.00;;;13.30;88.40;;;;;;4969839;28;20101;-69
2023/09/23 01:28:32;;;;;;;0.00;0.00;;;13.20;88.50;;;;;;4969262;23;20062;-68
2023/09/23 01:31:00;;;;;;;0.00;0.00;;;13.20;88.60;;;;;;4989713;28;20061;-68
2023/09/23 01:33:27;;;;;;;0.03;0.03;;;13.10;88.80;;;;;;4985406;28;20050;-68
2023/09/23 01:35:56;;;;;;;0.00;0.00;;;13.20;88.80;;;;;;4987036;28;20101;-68
2023/09/23 01:38:22;;;;;;;0.00;0.00;;;13.20;88.80;;;;;;4983850;28;20047;-68
2023/09/23 01:40:48;;;;;;;0.00;0.00;;;13.10;89.00;;;;;;4990038;28;20043;-69
2023/09/23 01:43:14;;;;;;;0.00;0.00;;;13.10;88.90;;;;;;4989908;28;20046;-68
2023/09/23 01:45:40;;;;;;;0.10;0.10;;;13.10;88.80;;;;;;4993204;28;20053;-69
2023/09/23 01:48:07;;;;;;;0.00;0.00;;;13.10;89.00;;;;;;4989629;28;20045;-69
2023/09/23 01:50:32;;;;;;;0.10;0.10;;;13.10;89.00;;;;;;4994002;28;20383;-69
2023/09/23 01:53:00;;;;;;;0.00;0.00;;;13.10;89.00;;;;;;4993183;28;20050;-69
2023/09/23 01:55:29;;;;;;;0.00;0.00;;;13.10;88.90;;;;;;4994359;28;20177;-69
2023/09/23 01:57:55;;;;;;;0.00;0.00;;;13.10;88.90;;;;;;4993038;28;20047;-68
2023/09/23 02:00:28;;;;;;;0.00;0.00;;;13.10;88.90;;;;;;4994648;28;20364;-69
2023/09/23 02:02:55;;;;;;;0.00;0.00;;;13.10;88.70;;;;;;4990905;28;20050;-69
2023/09/23 02:05:24;;;;;;;0.00;0.00;;;13.10;88.80;;;;;;4991245;28;20043;-70
2023/09/23 02:07:50;;;;;;;0.00;0.00;;;13.00;88.70;;;;;;4994654;28;20050;-69
2023/09/23 02:10:21;;;;;;;0.00;0.00;;;13.10;88.70;;;;;;4995541;28;20054;-69
2023/09/23 02:12:47;;;;;;;0.00;0.00;;;13.10;88.70;;;;;;4979916;28;20062;-68
2023/09/23 02:15:16;;;;;;;0.30;0.30;;;13.00;88.70;;;;;;4991155;28;20083;-68
2023/09/23 02:17:43;;;;;;;0.05;0.05;;;13.00;88.90;;;;;;4993313;28;20057;-68
2023/09/23 02:20:11;;;;;;;0.00;0.00;;;13.00;88.90;;;;;;4974779;28;20404;-68
2023/09/23 02:22:37;;;;;;;0.00;0.00;;;13.00;88.90;;;;;;4982000;28;20048;-69
2023/09/23 02:25:04;;;;;;;0.00;0.00;;;13.00;89.00;;;;;;4993603;28;20474;-68
2023/09/23 02:27:30;;;;;;;0.00;0.00;;;13.00;89.00;;;;;;4994066;28;20133;-69
2023/09/23 02:29:55;;;;;;;0.20;0.20;;;13.00;89.10;;;;;;4994328;28;20149;-69
2023/09/23 02:32:21;;;;;;;0.00;0.00;;;13.00;88.90;;;;;;4982106;28;20698;-68
2023/09/23 02:34:46;;;;;;;0.00;0.00;;;13.00;89.00;;;;;;4980380;28;20474;-69
2023/09/23 02:37:12;;;;;;;0.00;0.00;;;12.90;89.00;;;;;;4987084;28;20058;-69
2023/09/23 02:39:38;;;;;;;0.00;0.00;;;13.00;89.10;;;;;;4979218;28;20050;-69
2023/09/23 02:42:05;;;;;;;0.00;0.00;;;12.90;89.10;;;;;;4985268;28;20102;-70
2023/09/23 02:44:30;;;;;;;0.00;0.00;;;12.90;89.00;;;;;;5046418;23;20062;-69
2023/09/23 02:46:56;;;;;;;0.00;0.00;;;12.90;89.10;;;;;;4986152;28;20059;-69
2023/09/23 02:49:21;;;;;;;0.00;0.00;;;12.90;89.10;;;;;;4979817;28;20057;-69
2023/09/23 02:51:48;;;;;;;0.00;0.00;;;13.00;89.20;;;;;;4990868;28;20042;-69
2023/09/23 02:54:15;;;;;;;0.00;0.00;;;13.00;89.10;;;;;;4991851;28;20038;-69
2023/09/23 02:56:41;;;;;;;0.10;0.10;;;13.00;89.10;;;;;;4991200;28;20344;-69
2023/09/23 02:59:15;;;;;;;0.10;0.05;;;13.00;89.20;;;;;;4991644;28;20104;-69
2023/09/23 03:01:45;;;;;;;0.25;0.25;;;13.00;89.20;;;;;;4991667;28;20034;-69
2023/09/23 03:04:19;;;;;;;0.00;0.00;;;13.00;89.10;;;;;;4991526;28;20050;-69
2023/09/23 03:06:49;;;;;;;0.00;0.00;;;13.00;89.10;;;;;;4991746;28;20097;-69
2023/09/23 03:09:25;;;;;;;0.00;0.00;;;13.00;89.10;;;;;;4989852;28;20039;-69
2023/09/23 03:11:58;;;;;;;0.00;0.00;;;13.10;89.30;;;;;;4973377;28;20038;-69
2023/09/23 03:14:36;;;;;;;0.45;0.45;;;13.00;89.40;;;;;;4971308;28;20059;-69
2023/09/23 03:17:03;;;;;;;0.00;0.00;;;13.00;89.40;;;;;;4970470;28;20492;-69
2023/09/23 03:19:31;;;;;;;0.00;0.00;;;13.00;89.50;;;;;;4967592;28;20521;-69
2023/09/23 03:21:58;;;;;;;0.00;0.00;;;13.00;89.60;;;;;;4971936;28;20113;-69
2023/09/23 03:24:28;;;;;;;0.00;0.00;;;13.10;89.70;;;;;;4972109;28;20094;-69
2023/09/23 03:26:55;;;;;;;0.00;0.00;;;13.10;89.70;;;;;;4971862;28;20495;-69
2023/09/23 03:29:22;;;;;;;0.08;0.08;;;13.10;89.80;;;;;;4988395;28;20058;-69
2023/09/23 03:31:49;;;;;;;0.00;0.00;;;13.10;89.80;;;;;;4988798;28;20385;-69
2023/09/23 03:34:15;;;;;;;0.00;0.00;;;13.10;89.70;;;;;;4971653;28;20047;-69
2023/09/23 03:36:41;;;;;;;0.05;0.05;;;13.10;89.80;;;;;;4970607;28;20047;-69
2023/09/23 03:39:09;;;;;;;0.00;0.00;;;13.10;89.80;;;;;;4983310;28;20301;-69
2023/09/23 03:41:38;;;;;;;0.00;0.00;;;13.10;90.00;;;;;;4973425;28;20074;-69
2023/09/23 03:44:07;;;;;;;0.00;0.00;;;13.10;90.00;;;;;;4971216;28;20141;-69
2023/09/23 03:46:33;;;;;;;0.00;0.00;;;13.20;89.90;;;;;;4971450;28;20105;-69
2023/09/23 03:49:00;;;;;;;0.00;0.00;;;13.20;90.00;;;;;;4971736;28;20046;-69
2023/09/23 03:51:26;;;;;;;0.00;0.00;;;13.20;90.00;;;;;;4970119;28;20117;-69
2023/09/23 03:53:51;;;;;;;0.10;0.10;;;13.30;89.90;;;;;;4970570;28;20445;-69
2023/09/23 03:56:21;;;;;;;0.00;0.00;;;13.30;90.00;;;;;;4969336;28;20047;-69
2023/09/23 03:58:46;;;;;;;0.10;0.10;;;13.30;90.00;;;;;;4970899;28;20053;-70
2023/09/23 04:01:15;;;;;;;0.00;0.00;;;13.30;90.00;;;;;;4970689;28;20051;-70
2023/09/23 04:03:43;;;;;;;0.08;0.08;;;13.30;89.90;;;;;;4971034;28;20141;-69
2023/09/23 04:06:08;;;;;;;0.00;0.00;;;13.30;90.00;;;;;;4961355;28;20082;-69
2023/09/23 04:08:34;;;;;;;0.65;0.65;;;13.30;89.90;;;;;;4962956;28;20183;-69
2023/09/23 04:11:07;;;;;;;0.43;0.43;;;13.40;89.90;;;;;;4964623;28;20137;-68
2023/09/23 04:13:33;;;;;;;0.00;0.00;;;13.40;89.90;;;;;;4968176;28;20055;-70
2023/09/23 04:16:00;;;;;;;0.20;0.20;;;13.30;89.70;;;;;;4968204;28;20046;-69
2023/09/23 04:18:27;;;;;;;0.00;0.00;;;13.40;89.80;;;;;;4951915;28;20590;-69
2023/09/23 04:20:53;;;;;;;0.00;0.00;;;13.50;89.70;;;;;;4969522;28;20081;-69
2023/09/23 04:23:19;;;;;;;0.00;0.00;;;13.40;89.50;;;;;;4948633;28;20050;-69
2023/09/23 04:25:45;;;;;;;0.00;0.00;;;13.30;89.40;;;;;;4967898;28;20057;-70
2023/09/23 04:28:10;;;;;;;0.00;0.00;;;13.30;89.40;;;;;;4959780;28;20058;-70
2023/09/23 04:30:36;;;;;;;0.00;0.00;;;13.40;89.30;;;;;;4966489;28;20035;-70
2023/09/23 04:33:02;;;;;;;0.00;0.00;;;13.30;89.20;;;;;;4955181;28;20551;-70
2023/09/23 04:35:29;;;;;;;0.00;0.00;;;13.30;89.10;;;;;;4966496;28;20081;-69
2023/09/23 04:37:55;;;;;;;0.00;0.00;;;13.30;89.00;;;;;;4958757;28;20524;-69
2023/09/23 04:40:21;;;;;;;0.00;0.00;;;13.30;88.90;;;;;;4958776;28;20053;-69
2023/09/23 04:42:48;;;;;;;0.00;0.00;;;13.30;89.00;;;;;;4954910;28;20058;-70
2023/09/23 04:45:14;;;;;;;0.00;0.00;;;13.30;89.00;;;;;;4960779;28;20054;-69
2023/09/23 04:47:40;;;;;;;0.00;0.00;;;13.20;88.90;;;;;;4966180;28;20463;-70
2023/09/23 04:50:08;;;;;;;0.00;0.00;;;13.10;88.90;;;;;;4967068;28;20042;-69
2023/09/23 04:52:34;;;;;;;0.00;0.00;;;13.10;89.00;;;;;;4954316;28;20046;-71
2023/09/23 04:55:00;;;;;;;0.00;0.00;;;13.10;89.00;;;;;;4961933;28;20067;-69
2023/09/23 04:57:26;;;;;;;0.00;0.00;;;13.10;89.10;;;;;;4963903;28;20039;-70
2023/09/23 04:59:57;;;;;;;0.00;0.00;;;13.10;89.10;;;;;;4954689;28;20108;-70
2023/09/23 05:02:23;;;;;;;0.00;0.00;;;13.10;89.20;;;;;;4961942;28;20039;-70
2023/09/23 05:04:53;;;;;;;0.08;0.08;;;13.10;89.20;;;;;;4952964;28;20638;-71
2023/09/23 05:07:21;;;;;;;0.00;0.00;;;13.10;89.20;;;;;;4964871;28;20074;-70
2023/09/23 05:09:47;;;;;;;0.00;0.00;;;13.10;89.10;;;;;;4957797;28;20046;-70
2023/09/23 05:12:14;;;;;;;0.00;0.00;;;13.10;89.10;;;;;;4965854;28;20496;-70
2023/09/23 05:14:40;;;;;;;0.00;0.00;;;13.10;89.10;;;;;;4954060;28;20054;-70
2023/09/23 05:17:05;;;;;;;0.00;0.00;;;13.10;89.00;;;;;;4964766;28;20471;-70
2023/09/23 05:19:34;;;;;;;0.00;0.00;;;13.00;89.00;;;;;;4956093;28;20550;-70
2023/09/23 05:22:00;;;;;;;0.00;0.00;;;13.10;89.10;;;;;;4969776;28;20059;-70
2023/09/23 05:24:27;;;;;;;0.00;0.00;;;13.10;89.00;;;;;;4956588;28;20058;-70
2023/09/23 05:26:55;;;;;;;0.00;0.00;;;13.10;89.00;;;;;;4968687;28;20053;-70
2023/09/23 05:29:24;;;;;;;0.00;0.00;;;13.10;88.90;;;;;;4956930;28;20107;-70
2023/09/23 05:31:50;;;;;;;0.00;0.00;;;13.10;89.00;;;;;;4967194;28;20051;-70
2023/09/23 05:34:18;;;;;;;0.00;0.00;;;13.10;89.00;;;;;;4960893;28;20051;-70
2023/09/23 05:36:45;;;;;;;0.00;0.00;;;13.10;89.00;;;;;;4965797;28;20058;-70
2023/09/23 05:39:14;;;;;;;0.00;0.00;;;13.00;89.10;;;;;;4958319;28;20063;-70
2023/09/23 05:41:40;;;;;;;0.00;0.00;;;13.00;89.10;;;;;;4971300;28;20567;-70
2023/09/23 05:44:08;;;;;;;0.00;0.00;;;13.00;89.30;;;;;;4960755;28;20047;-71
2023/09/23 05:46:41;;;;;;;0.00;0.00;;;13.10;89.30;;;;;;4969524;28;20062;-71
2023/09/23 05:49:08;;;;;;;0.00;0.00;;;13.10;89.40;;;;;;4942542;28;20492;-71
2023/09/23 05:51:34;;;;;;;0.00;0.00;;;13.10;89.50;;;;;;4972522;28;20324;-70
2023/09/23 05:54:02;;;;;;;0.00;0.00;;;13.10;89.50;;;;;;4955995;28;20049;-70
2023/09/23 05:56:28;;;;;;;0.00;0.00;;;13.20;89.60;;;;;;4965863;28;20055;-70
2023/09/23 05:58:53;;;;;;;0.00;0.00;;;13.20;89.60;;;;;;4961627;28;20065;-71
2023/09/23 06:01:19;;;;;;;0.00;0.00;;;13.20;89.70;;;;;;4965953;28;20487;-70
2023/09/23 06:03:45;;;;;;;0.00;0.00;;;13.20;89.80;;;;;;4953141;28;20124;-71
2023/09/23 06:06:11;;;;;;;0.00;0.00;;;13.20;90.00;;;;;;4967435;28;20086;-70
2023/09/23 06:08:37;;;;;;;0.03;0.03;;;13.30;90.10;;;;;;4964625;28;20055;-71
2023/09/23 06:11:04;;;;;;;0.00;0.00;;;13.30;90.30;;;;;;4960610;28;20518;-71
2023/09/23 06:13:34;;;;;;;0.00;0.00;;;13.30;90.40;;;;;;4968706;28;20427;-71
2023/09/23 06:16:04;;;;;;;0.50;0.50;;;13.40;90.40;;;;;;4954780;28;20142;-71
2023/09/23 06:18:30;;;;;;;0.00;0.00;;;13.50;90.70;;;;;;4963336;28;20046;-71
2023/09/23 06:21:03;;;;;;;0.10;0.10;;;13.50;90.80;;;;;;4958941;28;20084;-71
2023/09/23 06:23:28;;;;;;;0.00;0.00;;;13.60;90.70;;;;;;4963973;28;20163;-70
2023/09/23 06:25:55;;;;;;;0.00;0.00;;;13.60;90.70;;;;;;4959278;28;20059;-71
2023/09/23 06:28:22;;;;;;;0.10;0.10;;;13.70;90.80;;;;;;4984945;28;20054;-71
2023/09/23 06:30:48;;;;;;;0.00;0.00;;;13.80;90.90;;;;;;4971149;28;20078;-71
2023/09/23 06:33:13;;;;;;;0.10;0.10;;;13.90;90.80;;;;;;4970231;28;20097;-71
2023/09/23 06:35:39;;;;;;;0.00;0.00;;;14.10;90.50;;;;;;4971317;28;20411;-71
2023/09/23 06:38:04;;;;;;;0.10;0.10;;;14.10;91.00;;;;;;4976477;28;20208;-71
2023/09/23 06:40:30;;;;;;;0.00;0.00;;;14.10;91.00;;;;;;4970133;28;20054;-70
2023/09/23 06:42:56;;;;;;;0.00;0.00;;;14.10;90.90;;;;;;4969561;28;20069;-71
2023/09/23 06:45:21;;;;;;;0.00;0.00;;;14.10;90.90;;;;;;4971795;28;20050;-71
2023/09/23 06:47:47;;;;;;;0.00;0.00;;;14.20;90.80;;;;;;4963847;28;20136;-70
2023/09/23 06:50:12;;;;;;;0.82;0.80;;;14.10;90.80;;;;;;4963767;28;20043;-70
2023/09/23 06:52:38;;;;;;;0.00;0.00;;;14.20;90.90;;;;;;4964855;28;20078;-70
2023/09/23 06:55:04;;;;;;;0.00;0.00;;;14.10;90.80;;;;;;4969589;28;20051;-70
2023/09/23 06:57:30;;;;;;;0.00;0.00;;;14.20;90.70;;;;;;4973561;28;20057;-71
2023/09/23 06:59:55;;;;;;;0.13;0.13;;;14.10;90.50;;;;;;4964939;28;20050;-70
2023/09/23 07:02:21;;;;;;;0.00;0.00;;;14.20;90.40;;;;;;4971031;28;20042;-70
2023/09/23 07:04:47;;;;;;;0.00;0.00;;;14.10;90.40;;;;;;4968872;28;20109;-70
2023/09/23 07:07:13;;;;;;;0.10;0.10;;;14.10;90.50;;;;;;4972696;28;20046;-70
2023/09/23 07:09:38;;;;;;;0.00;0.00;;;14.10;90.50;;;;;;4968872;28;20051;-70
2023/09/23 07:12:05;;;;;;;4.65;2.47;;;14.10;90.70;;;;;;4954119;28;20086;-70
2023/09/23 07:14:31;;;;;;;0.00;0.00;;;14.00;90.60;;;;;;4969779;28;20046;-70
2023/09/23 07:16:56;;;;;;;0.00;0.00;;;14.10;90.60;;;;;;4966451;28;20043;-70
2023/09/23 07:19:22;;;;;;;0.00;0.00;;;14.10;90.40;;;;;;4971463;28;20058;-70
2023/09/23 07:21:47;;;;;;;0.10;0.10;;;14.10;90.40;;;;;;4971797;28;20074;-70
2023/09/23 07:24:13;;;;;;;0.00;0.00;;;14.20;90.50;;;;;;4961263;28;20042;-71
2023/09/23 07:26:39;;;;;;;0.00;0.00;;;14.20;90.50;;;;;;4971717;28;20043;-70
2023/09/23 07:29:04;;;;;;;0.00;0.00;;;14.30;90.50;;;;;;4962522;28;20121;-70
2023/09/23 07:31:30;;;;;;;0.88;0.55;;;14.30;90.60;;;;;;4968262;28;20151;-70
2023/09/23 07:33:55;;;;;;;0.00;0.00;;;14.30;90.50;;;;;;4971336;28;20086;-70
2023/09/23 07:36:21;;;;;;;0.10;0.10;;;14.40;90.50;;;;;;4958482;28;20153;-70
2023/09/23 07:38:47;;;;;;;0.00;0.00;;;14.50;90.60;;;;;;4970174;28;20070;-70
2023/09/23 07:41:12;;;;;;;0.00;0.00;;;14.50;90.50;;;;;;4986049;28;20058;-71
2023/09/23 07:43:39;;;;;;;0.00;0.00;;;14.50;90.50;;;;;;4967904;28;20114;-71
2023/09/23 07:46:05;;;;;;;0.00;0.00;;;14.60;90.30;;;;;;4965373;28;20101;-70
2023/09/23 07:48:31;;;;;;;0.00;0.00;;;14.60;90.30;;;;;;4970647;28;20491;-71
2023/09/23 07:50:56;;;;;;;0.05;0.05;;;14.60;90.30;;;;;;4969191;28;20046;-67
2023/09/23 07:53:22;;;;;;;0.00;0.00;;;14.60;89.90;;;;;;4965176;28;20131;-70
2023/09/23 07:55:48;;;;;;;0.10;0.10;;;14.70;89.80;;;;;;4958270;28;20101;-70
2023/09/23 07:58:14;;;;;;;0.00;0.00;;;14.70;89.50;;;;;;4969877;28;20051;-73
2023/09/23 08:00:39;;;;;;;0.00;0.00;;;14.80;89.40;;;;;;4948031;28;20031;-71
2023/09/23 08:03:05;;;;;;;0.00;0.00;;;14.80;88.80;;;;;;4965743;28;20034;-69
2023/09/23 08:05:31;;;;;;;0.00;0.00;;;14.90;89.10;;;;;;4968630;28;20050;-69
2023/09/23 08:07:57;;;;;;;0.00;0.00;;;15.00;89.10;;;;;;4965309;28;20496;-71
2023/09/23 08:10:23;;;;;;;0.00;0.00;;;15.00;89.20;;;;;;4951518;29;20054;-68
2023/09/23 08:12:49;;;;;;;0.20;0.20;;;14.90;89.10;;;;;;4964030;28;20652;-68
2023/09/23 08:15:14;;;;;;;0.00;0.00;;;15.00;89.00;;;;;;4952768;28;20074;-70
2023/09/23 08:17:40;;;;;;;0.00;0.00;;;15.00;89.00;;;;;;4968191;28;20039;-69
2023/09/23 08:20:17;;;;;;;0.73;0.73;;;15.10;89.20;;;;;;4968005;28;20045;-69
2023/09/23 08:22:44;;;;;;;0.10;0.10;;;15.10;89.10;;;;;;4968657;28;20420;-69
2023/09/23 08:25:11;;;;;;;0.00;0.00;;;15.20;88.80;;;;;;4969790;28;20045;-68
2023/09/23 08:27:37;;;;;;;0.00;0.00;;;15.20;88.60;;;;;;4970251;28;20511;-67
2023/09/23 08:30:03;;;;;;;3.35;1.90;;;15.30;88.60;;;;;;4970869;28;20047;-67
2023/09/23 08:32:28;;;;;;;0.00;0.00;;;15.30;88.10;;;;;;4970934;28;20110;-68
2023/09/23 08:34:54;;;;;;;0.10;0.10;;;15.30;88.00;;;;;;4968277;28;20046;-67
2023/09/23 08:37:20;;;;;;;0.00;0.00;;;15.30;87.90;;;;;;4970522;28;20053;-68
2023/09/23 08:39:46;;;;;;;0.00;0.00;;;15.40;87.70;;;;;;4970424;28;20042;-67
2023/09/23 08:42:11;;;;;;;0.00;0.00;;;15.50;87.80;;;;;;4969016;28;20043;-68
2023/09/23 08:44:39;;;;;;;0.00;0.00;;;15.60;87.70;;;;;;4967544;28;20050;-69
2023/09/23 08:47:05;;;;;;;0.00;0.00;;;15.50;86.40;;;;;;4963258;28;20039;-69
2023/09/23 08:49:32;;;;;;;0.90;0.80;;;15.50;86.00;;;;;;4969404;28;20051;-67
2023/09/23 08:52:00;;;;;;;0.00;0.00;;;15.60;85.90;;;;;;4968897;28;20047;-69
2023/09/23 08:54:28;;;;;;;0.00;0.00;;;15.60;86.10;;;;;;4968346;28;20043;-70
2023/09/23 08:56:54;;;;;;;0.00;0.00;;;15.60;86.20;;;;;;4963710;28;20145;-70
2023/09/23 08:59:20;;;;;;;0.00;0.00;;;15.50;86.10;;;;;;4967859;28;20440;-70
2023/09/23 09:01:45;;;;;;;0.00;0.00;;;15.50;86.30;;;;;;4968678;28;20057;-70
2023/09/23 09:04:15;;;;;;;0.00;0.00;;;15.60;86.30;;;;;;4969429;28;20035;-70
2023/09/23 09:06:54;;;;;;;0.00;0.00;;;15.60;86.40;;;;;;4965193;28;20066;-69
2023/09/23 09:09:20;;;;;;;0.00;0.00;;;15.60;85.70;;;;;;4967027;28;20090;-70
2023/09/23 09:11:47;;;;;;;0.00;0.00;;;15.70;86.00;;;;;;4967876;28;20082;-69
2023/09/23 09:14:14;;;;;;;0.00;0.00;;;15.90;86.30;;;;;;4967742;28;20043;-70
2023/09/23 09:16:40;;;;;;;0.08;0.08;;;16.00;85.50;;;;;;4967140;28;20125;-71
2023/09/23 09:19:05;;;;;;;0.00;0.00;;;16.10;84.70;;;;;;4966333;28;20125;-72
2023/09/23 09:21:32;;;;;;;0.00;0.00;;;16.10;84.30;;;;;;4968869;28;20526;-72
2023/09/23 09:23:58;;;;;;;0.10;0.10;;;16.10;84.30;;;;;;4966536;28;20047;-72
2023/09/23 09:26:24;;;;;;;0.00;0.00;;;16.20;84.00;;;;;;4964277;28;20043;-72
2023/09/23 09:28:50;;;;;;;0.00;0.00;;;16.10;84.20;;;;;;4967477;28;20063;-73
2023/09/23 09:31:19;;;;;;;0.00;0.00;;;16.20;83.70;;;;;;4968371;28;20051;-73
2023/09/23 09:33:47;;;;;;;0.00;0.00;;;16.20;84.30;;;;;;4968903;28;20047;-72
2023/09/23 09:36:19;;;;;;;0.00;0.00;;;16.20;84.50;;;;;;4968890;28;20043;-73
2023/09/23 09:38:49;;;;;;;0.00;0.00;;;16.30;84.40;;;;;;4969124;28;20090;-73
2023/09/23 09:41:21;;;;;;;0.00;0.00;;;16.30;84.30;;;;;;4969407;28;20043;-72
2023/09/23 09:43:47;;;;;;;;;;;16.30;83.30;;;;;;4970266;28;20568;-74
2023/09/23 09:46:13;;;;;;;0.00;0.00;;;16.40;83.50;;;;;;4969926;28;20018;-73
2023/09/23 09:48:43;;;;;;;0.00;0.00;;;16.50;83.60;;;;;;4967494;28;20050;-72
2023/09/23 09:51:13;;;;;;;0.00;0.00;;;16.50;83.30;;;;;;4959827;28;20047;-72
2023/09/23 09:53:40;;;;;;;0.00;0.00;;;16.50;81.30;;;;;;4958035;28;20035;-72
2023/09/23 09:56:06;;;;;;;0.43;0.43;;;16.60;82.00;;;;;;4964185;28;20376;-72
2023/09/23 09:58:40;;;;;;;0.00;0.00;;;16.60;81.60;;;;;;4969324;28;20570;-75
2023/09/23 10:01:11;;;;;;;0.25;0.25;;;16.70;81.30;;;;;;4962074;28;20395;-74
2023/09/23 10:03:40;;;;;;;0.00;0.00;;;16.80;81.30;;;;;;4968061;28;20069;-74
2023/09/23 10:06:07;;;;;;;0.63;0.63;;;16.90;81.20;;;;;;4970910;28;20042;-74
2023/09/23 10:08:38;;;;;;;0.00;0.00;;;16.90;80.70;;;;;;4973405;28;20118;-75
2023/09/23 10:11:08;;;;;;;0.00;0.00;;;17.00;81.60;;;;;;4972486;28;20042;-72
2023/09/23 10:13:34;;;;;;;0.00;0.00;;;17.00;79.60;;;;;;4983406;28;20051;-73
2023/09/23 10:16:17;;;;;;;0.03;0.03;;;17.10;80.50;;;;;;4964703;28;20389;-71
2023/09/23 10:18:44;;;;;;;0.00;0.00;;;17.10;81.00;;;;;;4971569;28;20097;-69
2023/09/23 10:21:23;;;;;;;0.00;0.00;;;17.10;81.50;;;;;;4974086;28;20506;-70
2023/09/23 10:23:51;;;;;;;0.00;0.00;;;17.10;80.70;;;;;;4992756;28;20097;-72
2023/09/23 10:26:19;;;;;;;0.00;0.00;;;17.10;80.20;;;;;;4974163;28;20043;-72
2023/09/23 10:28:58;;;;;;;0.00;0.00;;;17.00;79.60;;;;;;4953082;28;20613;-71
2023/09/23 10:31:28;;;;;;;0.10;0.10;;;17.00;79.90;;;;;;4971266;28;20054;-72
2023/09/23 10:33:54;;;;;;;0.00;0.00;;;16.90;79.60;;;;;;4965138;28;20054;-72
2023/09/23 10:36:21;;;;;;;0.65;0.45;;;16.90;79.20;;;;;;4958610;28;20047;-72
2023/09/23 10:38:46;;;;;;;0.00;0.00;;;16.90;79.70;;;;;;4968563;28;20047;-72
2023/09/23 10:41:12;;;;;;;0.00;0.00;;;16.90;80.00;;;;;;4968265;28;20414;-71
2023/09/23 10:43:38;;;;;;;0.00;0.00;;;16.80;80.20;;;;;;4967162;28;20062;-72
2023/09/23 10:46:05;;;;;;;0.00;0.00;;;16.80;80.00;;;;;;4962214;28;20138;-72
2023/09/23 10:48:31;;;;;;;0.00;0.00;;;16.80;79.80;;;;;;4966380;28;20042;-71
2023/09/23 10:50:58;;;;;;;0.03;0.03;;;16.80;79.70;;;;;;4961034;28;20109;-72
2023/09/23 10:53:25;;;;;;;0.00;0.00;;;16.90;80.10;;;;;;4963082;28;20050;-71
2023/09/23 10:55:51;;;;;;;0.00;0.00;;;16.90;80.40;;;;;;4972186;28;20105;-72
2023/09/23 10:58:17;;;;;;;0.00;0.00;;;16.90;80.50;;;;;;4954210;28;20065;-72
2023/09/23 11:00:43;;;;;;;1.95;0.35;;;17.00;80.60;;;;;;4971036;28;20046;-71
2023/09/23 11:03:16;;;;;;;0.00;0.00;;;17.10;79.40;;;;;;4969884;28;20065;-71
2023/09/23 11:05:43;;;;;;;0.00;0.00;;;17.10;77.80;;;;;;4972412;28;20054;-70
2023/09/23 11:08:14;;;;;;;0.00;0.00;;;17.10;78.30;;;;;;4971649;28;20050;-72
2023/09/23 11:10:44;;;;;;;0.00;0.00;;;17.00;79.00;;;;;;4967866;28;20054;-71
2023/09/23 11:13:11;;;;;;;0.00;0.00;;;16.90;79.20;;;;;;4953692;28;20508;-71
2023/09/23 11:15:38;;;;;;;0.00;0.00;;;16.80;79.90;;;;;;4957584;28;20093;-72
2023/09/23 11:18:08;;;;;;;0.00;0.00;;;16.80;80.60;;;;;;4969953;28;20046;-72
2023/09/23 11:20:37;;;;;;;0.10;0.10;;;16.60;81.30;;;;;;4970072;28;20635;-72
2023/09/23 11:23:05;;;;;;;0.00;0.00;;;16.50;81.60;;;;;;4971628;28;20042;-72
2023/09/23 11:25:35;;;;;;;0.00;0.00;;;16.60;82.40;;;;;;4972427;28;20101;-72
2023/09/23 11:28:00;;;;;;;0.00;0.00;;;16.60;82.90;;;;;;4970374;28;20053;-72
2023/09/23 11:30:26;;;;;;;0.10;0.10;;;16.60;82.40;;;;;;4962387;28;20039;-72
2023/09/23 11:32:53;;;;;;;0.00;0.00;;;16.70;82.20;;;;;;4962467;28;20459;-71
2023/09/23 11:35:20;;;;;;;0.08;0.08;;;16.70;80.20;;;;;;4971628;28;20050;-71
2023/09/23 11:37:46;;;;;;;0.00;0.00;;;16.60;80.60;;;;;;4969315;28;20058;-72
2023/09/23 11:40:12;;;;;;;0.00;0.00;;;16.80;81.30;;;;;;4967209;28;20046;-72
2023/09/23 11:42:38;;;;;;;0.00;0.00;;;16.90;81.80;;;;;;4965347;28;20118;-73
2023/09/23 11:45:04;;;;;;;0.00;0.00;;;17.00;80.30;;;;;;4968983;28;20125;-75
2023/09/23 11:47:31;;;;;;;0.00;0.00;;;17.00;79.00;;;;;;4970860;28;20491;-74
2023/09/23 11:49:56;;;;;;;0.00;0.00;;;17.10;79.20;;;;;;4965939;28;20423;-74
2023/09/23 11:52:22;;;;;;;0.00;0.00;;;17.10;78.40;;;;;;4961735;28;20039;-72
2023/09/23 11:54:47;;;;;;;0.00;0.00;;;17.20;78.70;;;;;;4967560;28;20093;-71
2023/09/23 11:57:13;;;;;;;0.00;0.00;;;17.20;79.20;;;;;;4969477;28;20043;-74
2023/09/23 11:59:39;;;;;;;0.05;0.05;;;17.20;77.50;;;;;;4967194;28;20039;-74
2023/09/23 12:02:08;;;;;;;0.00;0.00;;;17.20;76.70;;;;;;4968669;28;20051;-73
2023/09/23 12:04:34;;;;;;;0.00;0.00;;;17.30;76.30;;;;;;4970498;28;20396;-73
2023/09/23 12:07:00;;;;;;;0.00;0.00;;;17.40;76.70;;;;;;4971711;28;20039;-73
2023/09/23 12:09:26;;;;;;;0.00;0.00;;;17.50;76.70;;;;;;4971167;28;20415;-73
2023/09/23 12:11:51;;;;;;;0.00;0.00;;;17.50;74.90;;;;;;4971019;28;20061;-73
2023/09/23 12:14:19;;;;;;;0.00;0.00;;;17.50;72.90;;;;;;4971448;28;20046;-73
2023/09/23 12:16:45;;;;;;;0.00;0.00;;;17.50;73.60;;;;;;4971473;28;20530;-73
2023/09/23 12:19:11;;;;;;;0.00;0.00;;;17.60;72.60;;;;;;4970374;28;20078;-72
2023/09/23 12:21:37;;;;;;;0.00;0.00;;;17.60;72.60;;;;;;4970089;28;20149;-73
2023/09/23 12:24:03;;;;;;;0.00;0.00;;;17.60;73.70;;;;;;4971224;28;20539;-72
2023/09/23 12:26:31;;;;;;;0.00;0.00;;;17.70;74.00;;;;;;4971211;28;20134;-72
2023/09/23 12:28:56;;;;;;;0.00;0.00;;;17.80;72.50;;;;;;4952211;28;20055;-73
2023/09/23 12:31:24;;;;;;;0.00;0.00;;;17.90;73.30;;;;;;4971224;28;20484;-72
2023/09/23 12:33:50;;;;;;;0.00;0.00;;;18.00;73.30;;;;;;4970975;28;20043;-72
2023/09/23 12:36:16;;;;;;;0.00;0.00;;;17.90;72.60;;;;;;4971327;28;20093;-72
2023/09/23 12:38:42;;;;;;;0.03;0.03;;;18.00;74.60;;;;;;4970964;28;20043;-73
2023/09/23 12:41:08;;;;;;;0.00;0.00;;;18.10;73.40;;;;;;4970899;28;20444;-72
2023/09/23 12:43:33;;;;;;;0.00;0.00;;;18.20;74.00;;;;;;4970656;28;20458;-72
2023/09/23 12:45:59;;;;;;;0.00;0.00;;;18.30;72.80;;;;;;4970956;28;20055;-71